createdAt,value
2016-12-21T00:00:58.000Z,0
2016-12-21T00:01:57.974Z,0
2016-12-21T00:02:57.958Z,0
2016-12-21T00:03:57.943Z,0
2016-12-21T00:04:57.918Z,0
2016-12-21T00:05:57.898Z,0
2016-12-21T00:06:57.878Z,0
2016-12-21T00:07:57.865Z,0
2016-12-21T00:08:57.841Z,0
2016-12-21T00:09:57.824Z,0
2016-12-21T00:10:57.813Z,0
2016-12-21T00:11:57.792Z,0
2016-12-21T00:12:57.768Z,0
2016-12-21T00:13:57.743Z,0
2016-12-21T00:14:57.735Z,0
2016-12-21T00:15:57.710Z,0
2016-12-21T00:16:57.689Z,0
2016-12-21T00:17:57.671Z,0
2016-12-21T00:18:57.648Z,0
2016-12-21T00:19:57.631Z,0
2016-12-21T00:20:57.613Z,0
2016-12-21T00:21:57.589Z,0
2016-12-21T00:22:58.278Z,0
2016-12-21T00:23:58.138Z,0
2016-12-21T00:24:57.538Z,0
2016-12-21T00:25:58.219Z,0
2016-12-21T00:26:57.495Z,0
2016-12-21T00:27:58.342Z,0
2016-12-21T00:28:57.463Z,0
2016-12-21T00:29:57.440Z,0
2016-12-21T00:30:57.474Z,0
2016-12-21T00:31:57.406Z,0
2016-12-21T00:32:57.383Z,0
2016-12-21T00:33:57.363Z,0
2016-12-21T00:34:57.344Z,0
2016-12-21T00:35:57.323Z,0
2016-12-21T00:36:57.307Z,0
2016-12-21T00:37:57.286Z,0
2016-12-21T00:38:57.270Z,0
2016-12-21T00:39:57.245Z,0
2016-12-21T00:40:57.232Z,0
2016-12-21T00:41:57.212Z,0
2016-12-21T00:42:57.193Z,0
2016-12-21T00:43:57.172Z,0
2016-12-21T00:44:57.156Z,0
2016-12-21T00:45:57.137Z,0
2016-12-21T00:46:57.113Z,0
2016-12-21T00:47:57.101Z,0
2016-12-21T00:48:57.078Z,0
2016-12-21T00:49:57.067Z,0
2016-12-21T00:50:57.038Z,0
2016-12-21T00:51:57.017Z,0
2016-12-21T00:52:57.006Z,0
2016-12-21T00:53:56.987Z,0
2016-12-21T00:54:57.293Z,0
2016-12-21T00:55:56.949Z,0
2016-12-21T00:56:56.925Z,0
2016-12-21T00:57:56.910Z,0
2016-12-21T00:58:56.923Z,0
2016-12-21T00:59:56.865Z,0
2016-12-21T01:00:56.959Z,0
2016-12-21T01:01:56.836Z,0
2016-12-21T01:02:56.812Z,0
2016-12-21T01:03:56.805Z,0
2016-12-21T01:04:56.780Z,0
2016-12-21T01:05:56.755Z,0
2016-12-21T01:06:56.735Z,0
2016-12-21T01:07:56.714Z,0
2016-12-21T01:08:56.702Z,0
2016-12-21T01:09:56.682Z,0
2016-12-21T01:10:56.664Z,0
2016-12-21T01:11:56.645Z,0
2016-12-21T01:12:56.981Z,0
2016-12-21T01:13:57.019Z,0
2016-12-21T01:14:56.586Z,0
2016-12-21T01:15:56.570Z,0
2016-12-21T01:16:57.229Z,0
2016-12-21T01:17:56.531Z,0
2016-12-21T01:18:56.508Z,0
2016-12-21T01:19:57.173Z,0
2016-12-21T01:20:56.471Z,0
2016-12-21T01:21:56.454Z,0
2016-12-21T01:22:57.140Z,0
2016-12-21T01:23:56.651Z,0
2016-12-21T01:24:57.423Z,0
2016-12-21T01:25:56.376Z,0
2016-12-21T01:26:56.354Z,0
2016-12-21T01:27:57.229Z,0
2016-12-21T01:28:56.318Z,0
2016-12-21T01:29:56.329Z,0
2016-12-21T01:30:56.825Z,0
2016-12-21T01:31:56.264Z,0
2016-12-21T01:32:56.247Z,0
2016-12-21T01:33:56.771Z,0
2016-12-21T01:34:56.204Z,0
2016-12-21T01:35:56.183Z,0
2016-12-21T01:36:56.762Z,0
2016-12-21T01:37:56.153Z,0
2016-12-21T01:38:56.128Z,0
2016-12-21T01:39:56.638Z,0
2016-12-21T01:40:56.092Z,0
2016-12-21T01:41:56.073Z,0
2016-12-21T01:42:56.590Z,0
2016-12-21T01:43:56.040Z,0
2016-12-21T01:44:56.020Z,0
2016-12-21T01:45:56.533Z,0
2016-12-21T01:46:55.972Z,0
2016-12-21T01:47:55.965Z,0
2016-12-21T01:48:56.479Z,0
2016-12-21T01:49:55.921Z,0
2016-12-21T01:50:57.003Z,0
2016-12-21T01:51:55.881Z,0
2016-12-21T01:52:55.866Z,0
2016-12-21T01:53:56.129Z,0
2016-12-21T01:54:55.822Z,0
2016-12-21T01:55:55.832Z,0
2016-12-21T01:56:56.103Z,0
2016-12-21T01:57:55.767Z,0
2016-12-21T01:58:55.749Z,0
2016-12-21T01:59:56.227Z,0
2016-12-21T02:00:55.711Z,0
2016-12-21T02:01:56.353Z,0
2016-12-21T02:02:55.676Z,0
2016-12-21T02:03:55.651Z,0
2016-12-21T02:04:56.026Z,0
2016-12-21T02:05:55.615Z,0
2016-12-21T02:06:55.604Z,0
2016-12-21T02:07:55.940Z,0
2016-12-21T02:08:55.555Z,0
2016-12-21T02:09:55.541Z,0
2016-12-21T02:10:56.435Z,0
2016-12-21T02:11:55.504Z,0
2016-12-21T02:12:55.485Z,0
2016-12-21T02:13:55.801Z,0
2016-12-21T02:14:55.449Z,0
2016-12-21T02:15:55.419Z,0
2016-12-21T02:16:56.190Z,0
2016-12-21T02:17:55.390Z,0
2016-12-21T02:18:55.548Z,0
2016-12-21T02:19:55.353Z,0
2016-12-21T02:20:55.327Z,0
2016-12-21T02:21:55.681Z,0
2016-12-21T02:22:55.295Z,0
2016-12-21T02:23:55.274Z,0
2016-12-21T02:24:56.009Z,0
2016-12-21T02:25:55.229Z,0
2016-12-21T02:26:55.215Z,0
2016-12-21T02:27:55.996Z,0
2016-12-21T02:28:55.180Z,0
2016-12-21T02:29:55.156Z,0
2016-12-21T02:30:55.222Z,0
2016-12-21T02:31:55.115Z,0
2016-12-21T02:32:55.102Z,0
2016-12-21T02:33:55.204Z,0
2016-12-21T02:34:55.068Z,0
2016-12-21T02:35:55.046Z,0
2016-12-21T02:36:55.507Z,0
2016-12-21T02:37:55.023Z,0
2016-12-21T02:38:54.984Z,0
2016-12-21T02:39:55.196Z,0
2016-12-21T02:40:54.988Z,0
2016-12-21T02:41:55.475Z,0
2016-12-21T02:42:54.911Z,0
2016-12-21T02:43:56.109Z,0
2016-12-21T02:44:54.877Z,0
2016-12-21T02:45:54.859Z,0
2016-12-21T02:46:56.263Z,0
2016-12-21T02:47:54.819Z,0
2016-12-21T02:48:54.799Z,0
2016-12-21T02:49:56.132Z,0
2016-12-21T02:50:54.762Z,0
2016-12-21T02:51:54.745Z,0
2016-12-21T02:52:55.950Z,0
2016-12-21T02:53:54.704Z,0
2016-12-21T02:54:54.719Z,0
2016-12-21T02:55:55.786Z,0
2016-12-21T02:56:54.648Z,0
2016-12-21T02:57:55.897Z,0
2016-12-21T02:58:54.612Z,0
2016-12-21T02:59:54.616Z,0
2016-12-21T03:00:55.418Z,0
2016-12-21T03:01:54.558Z,0
2016-12-21T03:02:54.559Z,0
2016-12-21T03:03:55.331Z,0
2016-12-21T03:04:54.496Z,0
2016-12-21T03:05:54.482Z,0
2016-12-21T03:06:55.425Z,0
2016-12-21T03:07:54.445Z,0
2016-12-21T03:08:54.424Z,0
2016-12-21T03:09:54.404Z,0
2016-12-21T03:10:54.385Z,0
2016-12-21T03:11:54.365Z,0
2016-12-21T03:12:54.345Z,0
2016-12-21T03:13:54.327Z,0
2016-12-21T03:14:54.309Z,0
2016-12-21T03:15:54.285Z,0
2016-12-21T03:16:54.270Z,0
2016-12-21T03:17:54.562Z,0
2016-12-21T03:18:54.224Z,0
2016-12-21T03:19:54.209Z,0
2016-12-21T03:20:54.188Z,0
2016-12-21T03:21:54.171Z,0
2016-12-21T03:22:54.153Z,0
2016-12-21T03:23:54.133Z,0
2016-12-21T03:24:54.120Z,0
2016-12-21T03:25:54.095Z,0
2016-12-21T03:26:54.073Z,0
2016-12-21T03:27:54.054Z,0
2016-12-21T03:28:54.040Z,0
2016-12-21T03:29:54.020Z,0
2016-12-21T03:30:53.996Z,0
2016-12-21T03:31:53.988Z,0
2016-12-21T03:32:53.966Z,0
2016-12-21T03:33:53.941Z,0
2016-12-21T03:34:53.954Z,0
2016-12-21T03:35:53.909Z,0
2016-12-21T03:36:53.885Z,0
2016-12-21T03:37:53.866Z,0
2016-12-21T03:38:53.848Z,0
2016-12-21T03:39:53.827Z,0
2016-12-21T03:40:53.807Z,0
2016-12-21T03:41:53.787Z,0
2016-12-21T03:42:53.801Z,0
2016-12-21T03:43:53.750Z,0
2016-12-21T03:44:53.732Z,0
2016-12-21T03:45:53.714Z,0
2016-12-21T03:46:53.693Z,0
2016-12-21T03:47:53.677Z,0
2016-12-21T03:48:53.663Z,0
2016-12-21T03:49:53.634Z,0
2016-12-21T03:50:53.618Z,0
2016-12-21T03:51:53.598Z,0
2016-12-21T03:52:53.582Z,0
2016-12-21T03:53:53.560Z,0
2016-12-21T03:54:53.548Z,0
2016-12-21T03:55:53.526Z,0
2016-12-21T03:56:53.533Z,0
2016-12-21T03:57:53.490Z,0
2016-12-21T03:58:53.468Z,0
2016-12-21T03:59:53.449Z,0
2016-12-21T04:00:53.433Z,0
2016-12-21T04:01:53.409Z,0
2016-12-21T04:02:53.391Z,0
2016-12-21T04:03:53.372Z,0
2016-12-21T04:04:53.360Z,0
2016-12-21T04:05:53.332Z,0
2016-12-21T04:06:53.316Z,0
2016-12-21T04:07:53.297Z,0
2016-12-21T04:08:53.279Z,0
2016-12-21T04:09:53.262Z,0
2016-12-21T04:10:53.238Z,0
2016-12-21T04:11:53.226Z,0
2016-12-21T04:12:53.199Z,0
2016-12-21T04:13:53.183Z,0
2016-12-21T04:14:53.162Z,0
2016-12-21T04:15:53.146Z,0
2016-12-21T04:16:53.122Z,0
2016-12-21T04:17:53.106Z,0
2016-12-21T04:18:53.088Z,0
2016-12-21T04:19:53.070Z,0
2016-12-21T04:20:53.055Z,0
2016-12-21T04:21:53.034Z,0
2016-12-21T04:22:53.018Z,0
2016-12-21T04:23:52.992Z,0
2016-12-21T04:24:53.014Z,0
2016-12-21T04:25:52.958Z,0
2016-12-21T04:26:52.966Z,0
2016-12-21T04:27:52.925Z,0
2016-12-21T04:28:52.904Z,0
2016-12-21T04:29:52.908Z,0
2016-12-21T04:30:52.870Z,0
2016-12-21T04:31:52.843Z,0
2016-12-21T04:32:52.826Z,0
2016-12-21T04:33:52.807Z,0
2016-12-21T04:34:52.787Z,0
2016-12-21T04:35:52.765Z,0
2016-12-21T04:36:52.753Z,0
2016-12-21T04:37:52.729Z,0
2016-12-21T04:38:52.726Z,0
2016-12-21T04:39:52.695Z,0
2016-12-21T04:40:52.703Z,0
2016-12-21T04:41:52.656Z,0
2016-12-21T04:42:52.634Z,0
2016-12-21T04:43:52.616Z,0
2016-12-21T04:44:52.598Z,0
2016-12-21T04:45:52.605Z,0
2016-12-21T04:46:52.556Z,0
2016-12-21T04:47:52.566Z,0
2016-12-21T04:48:52.524Z,0
2016-12-21T04:49:52.500Z,0
2016-12-21T04:50:52.486Z,0
2016-12-21T04:51:52.458Z,0
2016-12-21T04:52:52.444Z,0
2016-12-21T04:53:52.419Z,0
2016-12-21T04:54:52.403Z,0
2016-12-21T04:55:52.386Z,0
2016-12-21T04:56:52.371Z,0
2016-12-21T04:57:52.349Z,0
2016-12-21T04:58:52.332Z,0
2016-12-21T04:59:52.313Z,0
2016-12-21T05:00:52.289Z,0
2016-12-21T05:01:52.587Z,0
2016-12-21T05:02:52.255Z,0
2016-12-21T05:03:52.237Z,0
2016-12-21T05:04:52.216Z,0
2016-12-21T05:05:52.518Z,0
2016-12-21T05:06:52.177Z,0
2016-12-21T05:07:52.158Z,0
2016-12-21T05:08:52.140Z,0
2016-12-21T05:09:52.127Z,0
2016-12-21T05:10:52.103Z,0
2016-12-21T05:11:52.076Z,0
2016-12-21T05:12:52.067Z,0
2016-12-21T05:13:52.046Z,0
2016-12-21T05:14:52.027Z,0
2016-12-21T05:15:52.016Z,0
2016-12-21T05:16:52.014Z,0
2016-12-21T05:17:51.969Z,0
2016-12-21T05:18:51.951Z,0
2016-12-21T05:19:51.941Z,0
2016-12-21T05:20:51.912Z,0
2016-12-21T05:21:51.891Z,0
2016-12-21T05:22:51.899Z,0
2016-12-21T05:23:51.855Z,0
2016-12-21T05:24:51.831Z,0
2016-12-21T05:25:51.816Z,0
2016-12-21T05:26:51.796Z,0
2016-12-21T05:27:51.773Z,0
2016-12-21T05:28:51.758Z,0
2016-12-21T05:29:51.741Z,0
2016-12-21T05:30:51.724Z,0
2016-12-21T05:31:51.723Z,0
2016-12-21T05:32:51.718Z,0
2016-12-21T05:33:51.665Z,0
2016-12-21T05:34:51.640Z,0
2016-12-21T05:35:51.938Z,0
2016-12-21T05:36:51.602Z,0
2016-12-21T05:37:51.595Z,0
2016-12-21T05:38:51.571Z,0
2016-12-21T05:39:51.549Z,0
2016-12-21T05:40:51.526Z,0
2016-12-21T05:41:51.508Z,0
2016-12-21T05:42:51.489Z,0
2016-12-21T05:43:51.476Z,0
2016-12-21T05:44:51.451Z,0
2016-12-21T05:45:51.435Z,0
2016-12-21T05:46:51.416Z,0
2016-12-21T05:47:51.389Z,0
2016-12-21T05:48:51.377Z,0
2016-12-21T05:49:51.355Z,0
2016-12-21T05:50:51.334Z,0
2016-12-21T05:51:51.317Z,0
2016-12-21T05:52:51.294Z,0
2016-12-21T05:53:51.277Z,0
2016-12-21T05:54:51.257Z,0
2016-12-21T05:55:51.243Z,0
2016-12-21T05:56:51.231Z,0
2016-12-21T05:57:51.212Z,0
2016-12-21T05:58:51.183Z,0
2016-12-21T05:59:51.196Z,0
2016-12-21T06:00:51.147Z,0
2016-12-21T06:01:51.129Z,0
2016-12-21T06:02:51.105Z,0
2016-12-21T06:03:51.085Z,0
2016-12-21T06:04:51.071Z,0
2016-12-21T06:05:51.050Z,0
2016-12-21T06:06:51.034Z,0
2016-12-21T06:07:51.012Z,0
2016-12-21T06:08:50.998Z,0
2016-12-21T06:09:50.973Z,0
2016-12-21T06:10:50.954Z,0
2016-12-21T06:11:50.932Z,0
2016-12-21T06:12:50.912Z,0
2016-12-21T06:13:50.894Z,0
2016-12-21T06:14:50.879Z,0
2016-12-21T06:15:50.892Z,0
2016-12-21T06:16:50.863Z,0
2016-12-21T06:17:50.815Z,0
2016-12-21T06:18:50.802Z,0
2016-12-21T06:19:50.806Z,0
2016-12-21T06:20:50.761Z,0
2016-12-21T06:21:50.742Z,0
2016-12-21T06:22:50.720Z,0
2016-12-21T06:23:50.698Z,0
2016-12-21T06:24:50.679Z,0
2016-12-21T06:25:50.663Z,0
2016-12-21T06:26:50.644Z,0
2016-12-21T06:27:50.624Z,0
2016-12-21T06:28:50.607Z,0
2016-12-21T06:29:50.585Z,0
2016-12-21T06:30:50.567Z,0
2016-12-21T06:31:50.550Z,0
2016-12-21T06:32:50.526Z,0
2016-12-21T06:33:50.536Z,0
2016-12-21T06:34:50.489Z,0
2016-12-21T06:35:50.480Z,0
2016-12-21T06:36:50.451Z,0
2016-12-21T06:37:50.425Z,0
2016-12-21T06:38:50.406Z,0
2016-12-21T06:39:50.389Z,0
2016-12-21T06:40:50.375Z,0
2016-12-21T06:41:50.355Z,0
2016-12-21T06:42:50.648Z,0
2016-12-21T06:43:50.314Z,0
2016-12-21T06:44:50.300Z,0
2016-12-21T06:45:50.275Z,0
2016-12-21T06:46:50.254Z,0
2016-12-21T06:47:50.239Z,0
2016-12-21T06:48:50.224Z,0
2016-12-21T06:49:50.199Z,0
2016-12-21T06:50:50.173Z,0
2016-12-21T06:51:50.163Z,0
2016-12-21T06:52:50.140Z,0
2016-12-21T06:53:50.121Z,0
2016-12-21T06:54:50.106Z,0
2016-12-21T06:55:50.087Z,0
2016-12-21T06:56:50.069Z,0
2016-12-21T06:57:50.041Z,0
2016-12-21T06:58:50.027Z,0
2016-12-21T06:59:50.009Z,0
2016-12-21T07:00:49.991Z,0
2016-12-21T07:01:49.968Z,5
2016-12-21T07:02:49.953Z,5
2016-12-21T07:03:50.241Z,5
2016-12-21T07:04:49.913Z,5
2016-12-21T07:05:49.888Z,5
2016-12-21T07:06:49.874Z,5
2016-12-21T07:07:50.190Z,5
2016-12-21T07:08:49.831Z,5
2016-12-21T07:09:49.813Z,5
2016-12-21T07:10:49.789Z,10
2016-12-21T07:11:49.775Z,10
2016-12-21T07:12:49.751Z,10
2016-12-21T07:13:49.737Z,10
2016-12-21T07:14:49.716Z,10
2016-12-21T07:15:49.694Z,10
2016-12-21T07:16:49.675Z,10
2016-12-21T07:17:49.661Z,15
2016-12-21T07:18:49.640Z,15
2016-12-21T07:19:49.624Z,15
2016-12-21T07:20:49.608Z,15
2016-12-21T07:21:49.582Z,15
2016-12-21T07:22:49.594Z,15
2016-12-21T07:23:49.858Z,20
2016-12-21T07:24:49.524Z,20
2016-12-21T07:25:49.508Z,20
2016-12-21T07:26:49.486Z,20
2016-12-21T07:27:49.470Z,20
2016-12-21T07:28:49.445Z,25
2016-12-21T07:29:49.430Z,25
2016-12-21T07:30:49.411Z,25
2016-12-21T07:31:49.386Z,25
2016-12-21T07:32:49.372Z,25
2016-12-21T07:33:49.351Z,25
2016-12-21T07:34:49.339Z,30
2016-12-21T07:35:49.312Z,30
2016-12-21T07:36:49.289Z,30
2016-12-21T07:37:49.281Z,30
2016-12-21T07:38:49.252Z,30
2016-12-21T07:39:49.242Z,35
2016-12-21T07:40:49.219Z,35
2016-12-21T07:41:49.197Z,35
2016-12-21T07:42:49.180Z,35
2016-12-21T07:43:49.160Z,35
2016-12-21T07:44:49.142Z,35
2016-12-21T07:45:49.118Z,40
2016-12-21T07:46:49.100Z,40
2016-12-21T07:47:49.081Z,40
2016-12-21T07:48:49.059Z,40
2016-12-21T07:49:49.045Z,40
2016-12-21T07:50:49.025Z,40
2016-12-21T07:51:49.007Z,40
2016-12-21T07:52:48.987Z,45
2016-12-21T07:53:48.970Z,45
2016-12-21T07:54:48.949Z,45
2016-12-21T07:55:48.929Z,45
2016-12-21T07:56:48.943Z,45
2016-12-21T07:57:48.892Z,45
2016-12-21T07:58:48.879Z,50
2016-12-21T07:59:48.852Z,50
2016-12-21T08:00:48.837Z,50
2016-12-21T08:01:48.814Z,50
2016-12-21T08:02:49.107Z,50
2016-12-21T08:03:48.778Z,50
2016-12-21T08:04:48.769Z,55
2016-12-21T08:05:48.738Z,55
2016-12-21T08:06:48.722Z,55
2016-12-21T08:07:48.700Z,55
2016-12-21T08:08:48.683Z,55
2016-12-21T08:09:48.661Z,55
2016-12-21T08:10:48.680Z,55
2016-12-21T08:11:48.630Z,55
2016-12-21T08:12:48.607Z,60
2016-12-21T08:13:48.588Z,60
2016-12-21T08:14:48.568Z,60
2016-12-21T08:15:48.550Z,60
2016-12-21T08:16:48.534Z,60
2016-12-21T08:17:48.513Z,60
2016-12-21T08:18:48.491Z,60
2016-12-21T08:19:48.471Z,60
2016-12-21T08:20:48.455Z,60
2016-12-21T08:21:48.436Z,65
2016-12-21T08:22:48.418Z,65
2016-12-21T08:23:48.401Z,65
2016-12-21T08:24:48.381Z,65
2016-12-21T08:25:48.366Z,65
2016-12-21T08:26:48.341Z,65
2016-12-21T08:27:48.322Z,65
2016-12-21T08:28:48.304Z,65
2016-12-21T08:29:48.291Z,65
2016-12-21T08:30:48.261Z,65
2016-12-21T08:31:48.247Z,65
2016-12-21T08:32:48.229Z,65
2016-12-21T08:33:48.207Z,70
2016-12-21T08:34:48.190Z,70
2016-12-21T08:35:48.170Z,70
2016-12-21T08:36:48.154Z,70
2016-12-21T08:37:48.132Z,70
2016-12-21T08:38:48.115Z,70
2016-12-21T08:39:48.097Z,70
2016-12-21T08:40:48.081Z,70
2016-12-21T08:41:48.057Z,70
2016-12-21T08:42:48.040Z,70
2016-12-21T08:43:48.336Z,70
2016-12-21T08:44:47.997Z,70
2016-12-21T08:45:47.983Z,70
2016-12-21T08:46:47.960Z,75
2016-12-21T08:47:47.949Z,75
2016-12-21T08:48:47.928Z,75
2016-12-21T08:49:47.906Z,75
2016-12-21T08:50:47.894Z,75
2016-12-21T08:51:47.865Z,75
2016-12-21T08:52:47.848Z,75
2016-12-21T08:53:47.831Z,75
2016-12-21T08:54:48.126Z,75
2016-12-21T08:55:47.790Z,75
2016-12-21T08:56:47.771Z,75
2016-12-21T08:57:47.798Z,75
2016-12-21T08:58:47.734Z,75
2016-12-21T08:59:47.722Z,80
2016-12-21T09:00:47.728Z,80
2016-12-21T09:01:47.676Z,80
2016-12-21T09:02:47.657Z,80
2016-12-21T09:03:47.954Z,80
2016-12-21T09:04:47.628Z,80
2016-12-21T09:05:47.600Z,80
2016-12-21T09:06:47.591Z,80
2016-12-21T09:07:47.590Z,80
2016-12-21T09:08:47.546Z,80
2016-12-21T09:09:47.531Z,80
2016-12-21T09:10:47.512Z,80
2016-12-21T09:11:47.518Z,80
2016-12-21T09:12:47.785Z,80
2016-12-21T09:13:47.452Z,80
2016-12-21T09:14:47.431Z,80
2016-12-21T09:15:47.411Z,80
2016-12-21T09:16:47.394Z,80
2016-12-21T09:17:47.375Z,80
2016-12-21T09:18:47.356Z,85
2016-12-21T09:19:47.337Z,85
2016-12-21T09:20:47.319Z,85
2016-12-21T09:21:47.301Z,85
2016-12-21T09:22:47.289Z,85
2016-12-21T09:23:47.263Z,85
2016-12-21T09:24:47.281Z,85
2016-12-21T09:25:47.233Z,85
2016-12-21T09:26:47.206Z,85
2016-12-21T09:27:47.189Z,85
2016-12-21T09:28:47.174Z,85
2016-12-21T09:29:47.148Z,85
2016-12-21T09:30:47.134Z,85
2016-12-21T09:31:47.118Z,85
2016-12-21T09:32:47.095Z,85
2016-12-21T09:33:47.082Z,85
2016-12-21T09:34:47.094Z,85
2016-12-21T09:35:47.067Z,85
2016-12-21T09:36:47.026Z,85
2016-12-21T09:37:47.006Z,85
2016-12-21T09:38:46.988Z,85
2016-12-21T09:39:46.964Z,85
2016-12-21T09:40:46.949Z,85
2016-12-21T09:41:46.940Z,85
2016-12-21T09:42:46.908Z,85
2016-12-21T09:43:46.899Z,85
2016-12-21T09:44:47.203Z,85
2016-12-21T09:45:46.856Z,85
2016-12-21T09:46:46.839Z,85
2016-12-21T09:47:46.820Z,85
2016-12-21T09:48:46.805Z,85
2016-12-21T09:49:46.784Z,85
2016-12-21T09:50:47.097Z,85
2016-12-21T09:51:46.753Z,85
2016-12-21T09:52:46.737Z,85
2016-12-21T09:53:46.711Z,90
2016-12-21T09:54:46.690Z,90
2016-12-21T09:55:46.674Z,90
2016-12-21T09:56:46.662Z,90
2016-12-21T09:57:46.673Z,90
2016-12-21T09:58:46.626Z,90
2016-12-21T09:59:46.600Z,90
2016-12-21T10:00:46.585Z,90
2016-12-21T10:01:46.566Z,90
2016-12-21T10:02:46.551Z,90
2016-12-21T10:03:46.529Z,90
2016-12-21T10:04:46.518Z,90
2016-12-21T10:05:46.492Z,90
2016-12-21T10:06:46.484Z,90
2016-12-21T10:07:46.459Z,90
2016-12-21T10:08:46.439Z,90
2016-12-21T10:09:46.424Z,90
2016-12-21T10:10:46.400Z,90
2016-12-21T10:11:46.384Z,95
2016-12-21T10:12:46.371Z,95
2016-12-21T10:13:46.343Z,95
2016-12-21T10:14:46.333Z,95
2016-12-21T10:15:46.314Z,95
2016-12-21T10:16:46.295Z,95
2016-12-21T10:17:46.297Z,95
2016-12-21T10:18:46.260Z,95
2016-12-21T10:19:46.238Z,95
2016-12-21T10:20:46.220Z,95
2016-12-21T10:21:46.208Z,95
2016-12-21T10:22:46.192Z,95
2016-12-21T10:23:46.168Z,95
2016-12-21T10:24:46.146Z,95
2016-12-21T10:25:46.131Z,100
2016-12-21T10:26:46.114Z,100
2016-12-21T10:27:46.099Z,100
2016-12-21T10:28:46.085Z,100
2016-12-21T10:29:46.374Z,100
2016-12-21T10:30:46.047Z,100
2016-12-21T10:31:46.030Z,100
2016-12-21T10:32:46.011Z,100
2016-12-21T10:33:45.991Z,100
2016-12-21T10:34:45.979Z,100
2016-12-21T10:35:45.959Z,100
2016-12-21T10:36:45.947Z,100
2016-12-21T10:37:45.922Z,100
2016-12-21T10:38:45.902Z,100
2016-12-21T10:39:45.883Z,100
2016-12-21T10:40:45.867Z,100
2016-12-21T10:41:46.164Z,100
2016-12-21T10:42:45.832Z,100
2016-12-21T10:43:45.818Z,100
2016-12-21T10:44:45.794Z,100
2016-12-21T10:45:45.779Z,100
2016-12-21T10:46:45.771Z,100
2016-12-21T10:47:45.744Z,100
2016-12-21T10:48:45.724Z,100
2016-12-21T10:49:45.710Z,100
2016-12-21T10:50:45.692Z,100
2016-12-21T10:51:45.674Z,100
2016-12-21T10:52:45.656Z,100
2016-12-21T10:53:45.640Z,100
2016-12-21T10:54:45.617Z,100
2016-12-21T10:55:45.613Z,100
2016-12-21T10:56:45.609Z,100
2016-12-21T10:57:45.573Z,100
2016-12-21T10:58:45.583Z,100
2016-12-21T10:59:45.565Z,100
2016-12-21T11:00:45.514Z,100
2016-12-21T11:01:45.497Z,100
2016-12-21T11:02:45.478Z,100
2016-12-21T11:03:45.462Z,100
2016-12-21T11:04:45.443Z,100
2016-12-21T11:05:45.423Z,100
2016-12-21T11:06:45.413Z,105
2016-12-21T11:07:45.397Z,105
2016-12-21T11:08:45.375Z,105
2016-12-21T11:09:45.358Z,105
2016-12-21T11:10:45.337Z,105
2016-12-21T11:11:45.324Z,100
2016-12-21T11:12:45.307Z,100
2016-12-21T11:13:45.287Z,100
2016-12-21T11:14:45.268Z,100
2016-12-21T11:15:45.251Z,100
2016-12-21T11:16:45.237Z,100
2016-12-21T11:17:45.216Z,100
2016-12-21T11:18:45.198Z,100
2016-12-21T11:19:45.182Z,100
2016-12-21T11:20:45.165Z,100
2016-12-21T11:21:45.158Z,100
2016-12-21T11:22:45.134Z,100
2016-12-21T11:23:45.118Z,100
2016-12-21T11:24:45.096Z,100
2016-12-21T11:25:45.082Z,100
2016-12-21T11:26:45.065Z,100
2016-12-21T11:27:45.045Z,100
2016-12-21T11:28:45.035Z,100
2016-12-21T11:29:45.008Z,100
2016-12-21T11:30:44.994Z,100
2016-12-21T11:31:45.291Z,100
2016-12-21T11:32:44.960Z,95
2016-12-21T11:33:44.941Z,95
2016-12-21T11:34:44.935Z,95
2016-12-21T11:35:44.904Z,95
2016-12-21T11:36:44.893Z,95
2016-12-21T11:37:44.876Z,95
2016-12-21T11:38:44.857Z,95
2016-12-21T11:39:44.845Z,95
2016-12-21T11:40:44.829Z,95
2016-12-21T11:41:44.802Z,95
2016-12-21T11:42:44.791Z,95
2016-12-21T11:43:44.772Z,95
2016-12-21T11:44:44.758Z,95
2016-12-21T11:45:45.080Z,95
2016-12-21T11:46:44.719Z,95
2016-12-21T11:47:44.704Z,95
2016-12-21T11:48:44.998Z,95
2016-12-21T11:49:44.669Z,95
2016-12-21T11:50:44.652Z,95
2016-12-21T11:51:44.638Z,95
2016-12-21T11:52:44.645Z,95
2016-12-21T11:53:44.615Z,95
2016-12-21T11:54:44.582Z,95
2016-12-21T11:55:44.596Z,95
2016-12-21T11:56:44.551Z,95
2016-12-21T11:57:44.529Z,95
2016-12-21T11:58:44.519Z,95
2016-12-21T11:59:44.510Z,95
2016-12-21T12:00:44.486Z,95
2016-12-21T12:01:44.462Z,95
2016-12-21T12:02:44.449Z,95
2016-12-21T12:03:44.437Z,95
2016-12-21T12:04:44.420Z,95
2016-12-21T12:05:44.397Z,95
2016-12-21T12:06:44.384Z,95
2016-12-21T12:07:44.360Z,95
2016-12-21T12:08:44.342Z,95
2016-12-21T12:09:44.332Z,95
2016-12-21T12:10:44.335Z,95
2016-12-21T12:11:44.293Z,90
2016-12-21T12:12:44.277Z,90
2016-12-21T12:13:44.258Z,90
2016-12-21T12:14:44.245Z,90
2016-12-21T12:15:44.224Z,90
2016-12-21T12:16:44.210Z,90
2016-12-21T12:17:44.192Z,90
2016-12-21T12:18:44.210Z,90
2016-12-21T12:19:44.156Z,90
2016-12-21T12:20:44.141Z,90
2016-12-21T12:21:44.125Z,90
2016-12-21T12:22:44.137Z,90
2016-12-21T12:23:44.090Z,90
2016-12-21T12:24:44.073Z,90
2016-12-21T12:25:44.061Z,90
2016-12-21T12:26:44.040Z,90
2016-12-21T12:27:44.021Z,90
2016-12-21T12:28:44.005Z,90
2016-12-21T12:29:44.306Z,90
2016-12-21T12:30:43.970Z,90
2016-12-21T12:31:43.950Z,90
2016-12-21T12:32:43.942Z,90
2016-12-21T12:33:43.918Z,90
2016-12-21T12:34:43.904Z,90
2016-12-21T12:35:43.881Z,85
2016-12-21T12:36:43.867Z,85
2016-12-21T12:37:44.163Z,85
2016-12-21T12:38:43.834Z,85
2016-12-21T12:39:43.813Z,85
2016-12-21T12:40:43.793Z,85
2016-12-21T12:41:43.783Z,85
2016-12-21T12:42:43.763Z,85
2016-12-21T12:43:43.752Z,85
2016-12-21T12:44:43.732Z,85
2016-12-21T12:45:43.719Z,85
2016-12-21T12:46:43.708Z,85
2016-12-21T12:47:43.694Z,85
2016-12-21T12:48:43.658Z,85
2016-12-21T12:49:43.645Z,85
2016-12-21T12:50:43.623Z,85
2016-12-21T12:51:43.606Z,85
2016-12-21T12:52:43.596Z,85
2016-12-21T12:53:43.578Z,85
2016-12-21T12:54:43.558Z,85
2016-12-21T12:55:43.538Z,80
2016-12-21T12:56:43.520Z,80
2016-12-21T12:57:43.551Z,80
2016-12-21T12:58:43.491Z,80
2016-12-21T12:59:43.467Z,80
2016-12-21T13:00:43.484Z,80
2016-12-21T13:01:43.448Z,80
2016-12-21T13:02:43.415Z,80
2016-12-21T13:03:43.404Z,80
2016-12-21T13:04:43.392Z,80
2016-12-21T13:05:43.367Z,80
2016-12-21T13:06:43.364Z,80
2016-12-21T13:07:43.334Z,80
2016-12-21T13:08:43.319Z,80
2016-12-21T13:09:43.306Z,80
2016-12-21T13:10:43.288Z,80
2016-12-21T13:11:43.262Z,80
2016-12-21T13:12:43.261Z,80
2016-12-21T13:13:43.230Z,80
2016-12-21T13:14:43.209Z,75
2016-12-21T13:15:43.202Z,75
2016-12-21T13:16:43.177Z,75
2016-12-21T13:17:43.160Z,75
2016-12-21T13:18:43.142Z,75
2016-12-21T13:19:43.133Z,75
2016-12-21T13:20:43.105Z,75
2016-12-21T13:21:43.093Z,75
2016-12-21T13:22:43.073Z,75
2016-12-21T13:23:43.058Z,75
2016-12-21T13:24:43.039Z,75
2016-12-21T13:25:43.023Z,75
2016-12-21T13:26:43.008Z,75
2016-12-21T13:27:42.996Z,75
2016-12-21T13:28:42.971Z,75
2016-12-21T13:29:42.963Z,70
2016-12-21T13:30:42.940Z,70
2016-12-21T13:31:42.919Z,70
2016-12-21T13:32:42.930Z,70
2016-12-21T13:33:42.888Z,70
2016-12-21T13:34:42.869Z,70
2016-12-21T13:35:42.848Z,70
2016-12-21T13:36:42.840Z,70
2016-12-21T13:37:42.827Z,70
2016-12-21T13:38:42.803Z,70
2016-12-21T13:39:42.782Z,70
2016-12-21T13:40:42.764Z,70
2016-12-21T13:41:42.778Z,70
2016-12-21T13:42:42.766Z,65
2016-12-21T13:43:42.720Z,65
2016-12-21T13:44:42.697Z,65
2016-12-21T13:45:42.681Z,65
2016-12-21T13:46:42.666Z,65
2016-12-21T13:47:42.641Z,65
2016-12-21T13:48:42.627Z,65
2016-12-21T13:49:42.616Z,65
2016-12-21T13:50:42.593Z,65
2016-12-21T13:51:42.575Z,65
2016-12-21T13:52:42.561Z,60
2016-12-21T13:53:42.541Z,60
2016-12-21T13:54:42.523Z,60
2016-12-21T13:55:42.505Z,60
2016-12-21T13:56:42.489Z,60
2016-12-21T13:57:42.472Z,60
2016-12-21T13:58:42.463Z,60
2016-12-21T13:59:42.439Z,60
2016-12-21T14:00:42.421Z,60
2016-12-21T14:01:42.409Z,55
2016-12-21T14:02:42.381Z,55
2016-12-21T14:03:42.369Z,55
2016-12-21T14:04:42.343Z,55
2016-12-21T14:05:42.326Z,55
2016-12-21T14:06:42.321Z,55
2016-12-21T14:07:42.291Z,55
2016-12-21T14:08:42.276Z,55
2016-12-21T14:09:42.576Z,50
2016-12-21T14:10:42.245Z,50
2016-12-21T14:11:42.232Z,50
2016-12-21T14:12:42.204Z,50
2016-12-21T14:13:42.184Z,50
2016-12-21T14:14:42.168Z,50
2016-12-21T14:15:42.157Z,50
2016-12-21T14:16:42.136Z,50
2016-12-21T14:17:42.120Z,45
2016-12-21T14:18:42.101Z,45
2016-12-21T14:19:42.112Z,45
2016-12-21T14:20:42.066Z,45
2016-12-21T14:21:42.047Z,45
2016-12-21T14:22:42.346Z,45
2016-12-21T14:23:42.006Z,45
2016-12-21T14:24:41.996Z,40
2016-12-21T14:25:41.980Z,40
2016-12-21T14:26:41.962Z,40
2016-12-21T14:27:41.943Z,40
2016-12-21T14:28:41.927Z,40